createdAt,value
2019-02-05T00:00:46.711Z,9.60
2019-02-05T00:03:27.801Z,9.13
2019-02-05T00:06:08.311Z,8.70
2019-02-05T00:08:49.093Z,7.83
2019-02-05T00:11:31.725Z,7.67
2019-02-05T00:14:12.212Z,8.43
2019-02-05T00:16:53.066Z,9.27
2019-02-05T00:19:35.923Z,8.03
2019-02-05T00:22:16.565Z,9.90
2019-02-05T00:24:57.050Z,7.90
2019-02-05T00:27:37.718Z,10.20
2019-02-05T00:30:18.151Z,10.60
2019-02-05T00:32:59.548Z,11.13
2019-02-05T00:35:39.891Z,9.33
2019-02-05T00:38:20.779Z,9.37
2019-02-05T00:41:04.697Z,9.67
2019-02-05T00:43:45.711Z,11.93
2019-02-05T00:46:28.730Z,11.67
2019-02-05T00:49:09.277Z,8.03
2019-02-05T00:51:50.139Z,9.93
2019-02-05T00:54:31.213Z,9.13
2019-02-05T00:57:12.931Z,9.47
2019-02-05T00:59:54.084Z,8.20
2019-02-05T01:02:34.708Z,8.43
2019-02-05T01:05:15.563Z,8.07
2019-02-05T01:07:56.318Z,8.73
2019-02-05T01:10:37.230Z,9.27
2019-02-05T01:13:18.098Z,9.33
2019-02-05T01:15:58.862Z,9.27
2019-02-05T01:18:39.861Z,9.73
2019-02-05T01:21:23.004Z,8.37
2019-02-05T01:24:06.399Z,8.73
2019-02-05T01:26:47.329Z,9.23
2019-02-05T01:29:32.357Z,10.17
2019-02-05T01:32:13.080Z,9.37
2019-02-05T01:34:57.453Z,11.23
2019-02-05T01:37:40.068Z,9.80
2019-02-05T01:40:21.375Z,9.40
2019-02-05T01:43:02.226Z,9.23
2019-02-05T01:45:42.997Z,8.77
2019-02-05T01:48:23.694Z,10.23
2019-02-05T01:51:04.390Z,9.30
2019-02-05T01:53:44.651Z,8.80
2019-02-05T01:56:27.166Z,8.60
2019-02-05T01:59:08.191Z,9.97
2019-02-05T02:01:50.912Z,10.10
2019-02-05T02:04:32.687Z,11.37
2019-02-05T02:07:13.507Z,8.70
2019-02-05T02:09:53.793Z,9.97
2019-02-05T02:12:34.702Z,10.03
2019-02-05T02:15:15.610Z,10.00
2019-02-05T02:17:55.921Z,10.20
2019-02-05T02:20:36.733Z,10.80
2019-02-05T02:23:17.580Z,9.73
2019-02-05T02:25:58.241Z,9.70
2019-02-05T02:28:38.842Z,11.23
2019-02-05T02:31:19.860Z,9.57
2019-02-05T02:34:03.166Z,10.67
2019-02-05T02:36:43.942Z,10.73
2019-02-05T02:39:26.840Z,10.80
2019-02-05T02:42:07.633Z,9.90
2019-02-05T02:44:47.858Z,11.37
2019-02-05T02:47:28.215Z,11.37
2019-02-05T02:50:08.968Z,11.70
2019-02-05T02:52:51.558Z,13.20
2019-02-05T02:55:32.905Z,12.23
2019-02-05T02:58:13.704Z,10.87
2019-02-05T03:00:54.747Z,13.17
2019-02-05T03:03:35.075Z,12.40
2019-02-05T03:06:15.891Z,12.83
2019-02-05T03:08:56.848Z,12.27
2019-02-05T03:11:37.486Z,13.17
2019-02-05T03:14:18.546Z,12.67
2019-02-05T03:16:59.449Z,11.13
2019-02-05T03:19:40.582Z,13.60
2019-02-05T03:22:21.574Z,14.00
2019-02-05T03:25:05.265Z,12.90
2019-02-05T03:27:46.948Z,12.00
2019-02-05T03:30:27.937Z,13.53
2019-02-05T03:33:08.706Z,12.87
2019-02-05T03:35:50.401Z,19.13
2019-02-05T03:38:33.894Z,14.30
2019-02-05T03:41:14.607Z,14.60
2019-02-05T03:43:55.684Z,13.73
2019-02-05T03:46:37.602Z,12.30
2019-02-05T03:49:18.804Z,13.53
2019-02-05T03:51:59.739Z,12.17
2019-02-05T03:54:41.453Z,12.97
2019-02-05T03:57:30.632Z,12.60
2019-02-05T04:00:06.014Z,13.00
2019-02-05T04:02:46.572Z,12.47
2019-02-05T04:05:28.694Z,13.13
2019-02-05T04:08:11.392Z,13.63
2019-02-05T04:10:53.093Z,13.43
2019-02-05T04:13:33.544Z,13.40
2019-02-05T04:16:14.275Z,12.43
2019-02-05T04:18:55.103Z,15.60
2019-02-05T04:21:37.080Z,12.13
2019-02-05T04:24:17.876Z,15.70
2019-02-05T04:26:59.027Z,13.27
2019-02-05T04:29:40.019Z,13.43
2019-02-05T04:32:21.638Z,14.00
2019-02-05T04:35:02.283Z,12.93
2019-02-05T04:37:42.902Z,12.10
2019-02-05T04:40:24.399Z,14.30
2019-02-05T04:43:05.254Z,13.83
2019-02-05T04:45:46.698Z,11.63
2019-02-05T04:48:27.533Z,11.60
2019-02-05T04:51:08.115Z,12.43
2019-02-05T04:53:48.692Z,12.03
2019-02-05T04:56:29.530Z,12.00
2019-02-05T04:59:10.811Z,14.13
2019-02-05T05:01:51.634Z,13.77
2019-02-05T05:04:33.196Z,14.47
2019-02-05T05:07:14.784Z,14.77
2019-02-05T05:09:55.959Z,13.43
2019-02-05T05:12:36.981Z,16.33
2019-02-05T05:15:18.015Z,14.43
2019-02-05T05:17:59.152Z,16.63
2019-02-05T05:20:39.995Z,16.10
2019-02-05T05:23:20.656Z,13.90
2019-02-05T05:26:01.348Z,16.60
2019-02-05T05:28:42.506Z,17.07
2019-02-05T05:31:23.032Z,15.10
2019-02-05T05:34:03.957Z,14.93
2019-02-05T05:36:46.215Z,15.23
2019-02-05T05:39:27.351Z,16.50
2019-02-05T05:42:09.183Z,13.63
2019-02-05T05:44:49.852Z,13.60
2019-02-05T05:47:30.361Z,13.73
2019-02-05T05:50:11.523Z,14.13
2019-02-05T05:52:52.659Z,14.47
2019-02-05T05:55:32.971Z,22.90
2019-02-05T05:58:22.349Z,23.53
2019-02-05T06:00:57.358Z,24.37
2019-02-05T06:03:37.818Z,18.53
2019-02-05T06:06:18.354Z,22.17
2019-02-05T06:08:59.098Z,24.47
2019-02-05T06:11:39.656Z,20.90
2019-02-05T06:14:21.704Z,19.77
2019-02-05T06:17:02.820Z,22.67
2019-02-05T06:19:43.168Z,23.53
2019-02-05T06:22:26.516Z,18.47
2019-02-05T06:25:09.009Z,21.37
2019-02-05T06:27:51.399Z,24.17
2019-02-05T06:30:33.953Z,25.20
2019-02-05T06:33:15.466Z,25.97
2019-02-05T06:35:58.566Z,26.13
2019-02-05T06:38:40.756Z,26.83
2019-02-05T06:41:23.711Z,22.63
2019-02-05T06:44:06.048Z,22.70
2019-02-05T06:46:48.233Z,22.67
2019-02-05T06:49:28.813Z,20.97
2019-02-05T06:52:09.508Z,20.77
2019-02-05T06:54:50.268Z,24.47
2019-02-05T06:57:31.136Z,21.10
2019-02-05T07:00:11.395Z,18.80
2019-02-05T07:02:53.024Z,17.67
2019-02-05T07:05:35.386Z,17.90
2019-02-05T07:08:17.679Z,18.90
2019-02-05T07:11:00.175Z,18.97
2019-02-05T07:13:41.602Z,21.53
2019-02-05T07:16:23.617Z,16.50
2019-02-05T07:19:05.262Z,18.87
2019-02-05T07:21:45.824Z,20.73
2019-02-05T07:24:28.270Z,22.30
2019-02-05T07:27:08.951Z,20.33
2019-02-05T07:29:51.016Z,18.70
2019-02-05T07:32:31.918Z,19.50
2019-02-05T07:35:13.856Z,16.23
2019-02-05T07:37:55.469Z,14.83
2019-02-05T07:40:37.627Z,16.17
2019-02-05T07:43:19.700Z,20.77
2019-02-05T07:46:00.358Z,17.53
2019-02-05T07:48:30.524Z,18.87
2019-02-05T07:51:19.529Z,16.37
2019-02-05T07:54:07.586Z,14.57
2019-02-05T07:57:09.086Z,18.10
2019-02-05T07:59:47.179Z,15.93
2019-02-05T08:02:55.625Z,15.70
2019-02-05T08:06:04.190Z,16.60
2019-02-05T08:08:52.232Z,19.10
2019-02-05T08:11:41.380Z,19.67
2019-02-05T08:14:23.487Z,16.13
2019-02-05T08:17:05.214Z,15.50
2019-02-05T08:19:45.832Z,13.83
2019-02-05T08:22:26.488Z,17.93
2019-02-05T08:25:07.115Z,16.17
2019-02-05T08:27:49.420Z,16.60
2019-02-05T08:30:30.266Z,16.03
2019-02-05T08:33:11.192Z,16.73
2019-02-05T08:35:53.282Z,15.00
2019-02-05T08:38:34.980Z,15.63
2019-02-05T08:41:15.336Z,13.97
2019-02-05T08:43:57.364Z,15.97
2019-02-05T08:46:38.441Z,15.97
2019-02-05T08:49:20.796Z,18.47
2019-02-05T08:52:02.394Z,15.63
2019-02-05T08:54:45.230Z,16.93
2019-02-05T08:57:27.003Z,16.37
2019-02-05T09:00:08.974Z,17.30
2019-02-05T09:02:51.331Z,19.57
2019-02-05T09:05:31.534Z,18.47
2019-02-05T09:08:14.532Z,20.67
2019-02-05T09:10:56.399Z,20.17
2019-02-05T09:13:37.544Z,18.50
2019-02-05T09:16:20.795Z,18.53
2019-02-05T09:21:41.059Z,20.43
2019-02-05T09:24:22.137Z,19.97
2019-02-05T09:27:03.022Z,22.20
2019-02-05T09:29:44.083Z,23.63
2019-02-05T09:32:25.876Z,22.97
2019-02-05T09:35:08.258Z,25.90
2019-02-05T09:37:49.157Z,24.97
2019-02-05T09:40:30.541Z,26.90
2019-02-05T09:43:11.686Z,27.00
2019-02-05T09:45:53.600Z,27.40
2019-02-05T09:48:35.889Z,24.83
2019-02-05T09:51:17.099Z,27.43
2019-02-05T09:54:00.879Z,29.53
2019-02-05T09:56:42.729Z,25.90
2019-02-05T09:59:23.558Z,26.43
2019-02-05T10:02:04.921Z,26.73
2019-02-05T10:07:34.799Z,28.70
2019-02-05T10:10:16.719Z,28.43
2019-02-05T10:15:43.990Z,30.87
2019-02-05T10:21:37.559Z,28.37
2019-02-05T10:24:18.300Z,25.97
2019-02-05T10:26:58.786Z,31.17
2019-02-05T10:29:39.278Z,29.13
2019-02-05T10:32:20.792Z,28.57
2019-02-05T10:35:02.139Z,32.20
2019-02-05T10:37:42.962Z,31.13
2019-02-05T10:40:24.892Z,30.90
2019-02-05T10:43:05.150Z,29.73
2019-02-05T10:45:45.620Z,31.87
2019-02-05T10:48:26.915Z,31.80
2019-02-05T10:51:08.008Z,28.37
2019-02-05T10:53:49.351Z,30.57
2019-02-05T10:56:30.032Z,31.73
2019-02-05T10:59:10.897Z,30.07
2019-02-05T11:01:51.557Z,33.00
2019-02-05T11:04:32.258Z,29.73
2019-02-05T11:07:12.993Z,29.03
2019-02-05T11:09:53.822Z,30.37
2019-02-05T11:12:37.631Z,30.17
2019-02-05T11:15:18.733Z,27.40
2019-02-05T11:17:59.829Z,28.77
2019-02-05T11:20:40.856Z,38.83
2019-02-05T11:23:22.100Z,35.40
2019-02-05T11:26:02.901Z,39.10
2019-02-05T11:28:44.231Z,31.40
2019-02-05T11:31:25.102Z,26.47
2019-02-05T11:34:07.381Z,56.37
2019-02-05T11:36:48.190Z,70.83
2019-02-05T11:39:28.699Z,30.97
2019-02-05T11:42:09.588Z,29.40
2019-02-05T11:44:50.492Z,30.63
2019-02-05T11:47:31.571Z,27.50
2019-02-05T11:50:12.082Z,26.57
2019-02-05T11:52:53.117Z,27.53
2019-02-05T11:58:17.958Z,31.10
2019-02-05T12:01:00.234Z,26.77
2019-02-05T12:03:41.228Z,25.63
2019-02-05T12:06:21.907Z,30.17
2019-02-05T12:09:06.896Z,27.37
2019-02-05T12:11:48.111Z,25.50
2019-02-05T12:14:28.770Z,23.83
2019-02-05T12:17:10.429Z,25.10
2019-02-05T12:19:51.249Z,27.57
2019-02-05T12:22:32.062Z,26.33
2019-02-05T12:28:02.209Z,27.53
2019-02-05T12:30:45.516Z,22.50
2019-02-05T12:33:26.782Z,22.33
2019-02-05T12:36:07.935Z,25.17
2019-02-05T12:38:52.954Z,23.40
2019-02-05T12:41:33.700Z,26.67
2019-02-05T12:44:16.251Z,23.77
2019-02-05T12:46:57.298Z,21.23
2019-02-05T12:49:38.430Z,20.43
2019-02-05T12:52:19.327Z,22.27
2019-02-05T12:55:12.770Z,22.17
2019-02-05T12:57:44.966Z,25.27
2019-02-05T13:00:27.645Z,25.10
2019-02-05T13:03:09.366Z,25.73
2019-02-05T13:05:50.406Z,23.57
2019-02-05T13:11:35.619Z,24.10
2019-02-05T13:14:17.702Z,20.20
2019-02-05T13:16:58.538Z,20.63
2019-02-05T13:19:39.108Z,22.07
2019-02-05T13:22:20.127Z,20.63
2019-02-05T13:25:00.904Z,21.70
2019-02-05T13:27:41.542Z,20.10
2019-02-05T13:30:23.717Z,19.33
2019-02-05T13:33:05.143Z,18.10
2019-02-05T13:35:46.372Z,17.30
2019-02-05T13:38:26.730Z,18.10
2019-02-05T13:41:09.158Z,16.10
2019-02-05T13:43:51.532Z,12.93
2019-02-05T13:46:32.618Z,11.63
2019-02-05T13:49:01.054Z,16.47
2019-02-05T13:51:48.832Z,15.10
2019-02-05T13:54:36.884Z,15.47
2019-02-05T13:57:24.756Z,16.07
2019-02-05T14:00:34.339Z,16.27
2019-02-05T14:03:22.114Z,18.20
2019-02-05T14:06:29.066Z,16.10
2019-02-05T14:09:17.915Z,16.60
2019-02-05T14:12:06.087Z,17.53
2019-02-05T14:14:48.541Z,16.03
2019-02-05T14:17:29.177Z,15.90
2019-02-05T14:20:14.677Z,16.07
2019-02-05T14:22:57.089Z,20.60
2019-02-05T14:25:38.526Z,21.43
2019-02-05T14:28:19.282Z,21.67
2019-02-05T14:30:59.889Z,20.43
2019-02-05T14:33:43.800Z,22.10
2019-02-05T14:36:24.216Z,20.60
2019-02-05T14:39:05.283Z,21.47
2019-02-05T14:41:46.532Z,19.33
2019-02-05T14:44:27.254Z,20.63
2019-02-05T14:47:07.987Z,21.87
2019-02-05T14:49:50.048Z,21.40
2019-02-05T14:52:31.182Z,22.47
2019-02-05T14:55:11.500Z,23.77
2019-02-05T14:57:52.006Z,21.70
2019-02-05T15:00:32.429Z,24.30
2019-02-05T15:03:13.323Z,21.07
2019-02-05T15:05:54.667Z,22.17
2019-02-05T15:08:35.245Z,23.60
2019-02-05T15:11:17.569Z,23.63
2019-02-05T15:13:58.642Z,22.50
2019-02-05T15:16:40.204Z,19.73
2019-02-05T15:19:21.376Z,18.83
2019-02-05T15:22:01.685Z,18.70
2019-02-05T15:24:42.619Z,20.37
2019-02-05T15:27:23.424Z,16.00
2019-02-05T15:30:05.702Z,20.23
2019-02-05T15:32:47.914Z,19.97
2019-02-05T15:35:28.963Z,19.93
2019-02-05T15:38:11.198Z,20.13
2019-02-05T15:40:53.280Z,18.93
2019-02-05T15:43:35.585Z,17.57
2019-02-05T15:46:17.530Z,16.40
2019-02-05T15:49:00.181Z,18.13
2019-02-05T15:51:41.407Z,18.10
2019-02-05T15:54:21.955Z,17.87
2019-02-05T15:57:04.703Z,18.53
2019-02-05T16:02:30.603Z,20.50
2019-02-05T16:05:11.297Z,17.27
2019-02-05T16:07:51.845Z,21.07
2019-02-05T16:10:34.150Z,18.80
2019-02-05T16:16:07.246Z,20.57
2019-02-05T16:18:53.313Z,21.27
2019-02-05T16:21:33.022Z,19.13
2019-02-05T16:24:13.532Z,19.70
2019-02-05T16:26:55.499Z,17.80
2019-02-05T16:29:35.721Z,19.30
2019-02-05T16:32:17.897Z,19.67
2019-02-05T16:34:59.168Z,18.23
2019-02-05T16:37:40.450Z,19.87
2019-02-05T16:40:21.426Z,18.07
2019-02-05T16:45:54.256Z,19.37
2019-02-05T16:48:34.799Z,20.43
2019-02-05T16:51:15.406Z,20.73
2019-02-05T16:53:57.218Z,21.23
2019-02-05T16:56:38.614Z,19.83
2019-02-05T16:59:19.033Z,21.50
2019-02-05T17:02:01.278Z,20.83
2019-02-05T17:04:42.808Z,18.60
2019-02-05T17:07:24.385Z,21.97
2019-02-05T17:10:06.282Z,22.83
2019-02-05T17:12:47.353Z,21.57
2019-02-05T17:15:28.332Z,30.73
2019-02-05T17:18:09.057Z,27.67
2019-02-05T17:20:49.703Z,23.10
2019-02-05T17:23:32.261Z,25.37
2019-02-05T17:26:13.198Z,25.00
2019-02-05T17:28:53.726Z,24.10
2019-02-05T17:31:34.917Z,25.13
2019-02-05T17:34:16.558Z,23.33
2019-02-05T17:36:57.955Z,26.13
2019-02-05T17:39:39.140Z,26.60
2019-02-05T17:42:19.532Z,27.57
2019-02-05T17:45:00.923Z,26.47
2019-02-05T17:47:42.237Z,25.30
2019-02-05T17:50:23.618Z,26.17
2019-02-05T17:53:06.256Z,27.57
2019-02-05T17:55:47.246Z,26.80
2019-02-05T17:58:27.804Z,25.20
2019-02-05T18:01:09.926Z,33.53
2019-02-05T18:03:51.176Z,29.13
2019-02-05T18:06:32.463Z,32.77
2019-02-05T18:09:13.339Z,30.77
2019-02-05T18:11:53.953Z,28.10
2019-02-05T18:14:34.814Z,39.13
2019-02-05T18:17:15.330Z,44.00
2019-02-05T18:19:57.046Z,43.70
2019-02-05T18:22:38.167Z,34.90
2019-02-05T18:25:19.311Z,35.73
2019-02-05T18:28:00.600Z,29.97
2019-02-05T18:30:41.386Z,32.10
2019-02-05T18:33:22.426Z,44.03
2019-02-05T18:36:03.129Z,31.10
2019-02-05T18:38:43.415Z,26.77
2019-02-05T18:41:24.914Z,23.40
2019-02-05T18:44:06.178Z,25.30
2019-02-05T18:46:47.045Z,23.03
2019-02-05T18:49:30.282Z,25.57
2019-02-05T18:52:10.473Z,26.40
2019-02-05T18:54:51.826Z,29.63
2019-02-05T18:57:33.346Z,26.33
2019-02-05T19:00:13.819Z,27.27
2019-02-05T19:02:54.663Z,25.47
2019-02-05T19:05:35.455Z,28.70
2019-02-05T19:08:16.641Z,26.90
2019-02-05T19:10:58.174Z,31.27
2019-02-05T19:13:38.870Z,29.93
2019-02-05T19:16:19.967Z,28.43
2019-02-05T19:19:00.372Z,32.97
2019-02-05T19:21:43.812Z,30.33
2019-02-05T19:27:18.470Z,36.83
2019-02-05T19:29:58.731Z,36.47
2019-02-05T19:32:41.659Z,38.90
2019-02-05T19:35:22.527Z,35.53
2019-02-05T19:38:03.199Z,34.57
2019-02-05T19:40:43.926Z,37.63
2019-02-05T19:43:24.841Z,35.03
2019-02-05T19:46:29.741Z,30.50
2019-02-05T19:52:18.435Z,33.43
2019-02-05T19:54:59.395Z,34.07
2019-02-05T19:57:40.043Z,30.47
2019-02-05T20:00:22.166Z,36.10
2019-02-05T20:03:03.019Z,33.97
2019-02-05T20:05:44.183Z,32.77
2019-02-05T20:08:26.901Z,33.13
2019-02-05T20:11:08.365Z,36.33
2019-02-05T20:13:50.082Z,30.87
2019-02-05T20:16:30.892Z,34.87
2019-02-05T20:19:11.725Z,37.77
2019-02-05T20:21:53.267Z,37.27
2019-02-05T20:24:34.318Z,35.43
2019-02-05T20:27:15.385Z,39.77
2019-02-05T20:29:57.186Z,41.70
2019-02-05T20:32:37.883Z,33.23
2019-02-05T20:35:19.309Z,32.63
2019-02-05T20:38:01.098Z,31.23
2019-02-05T20:40:42.852Z,33.73
2019-02-05T20:43:23.624Z,34.63
2019-02-05T20:46:04.588Z,34.87
2019-02-05T20:48:45.815Z,30.73
2019-02-05T20:51:26.538Z,32.93
2019-02-05T20:54:07.295Z,32.13
2019-02-05T20:56:48.331Z,31.73
2019-02-05T20:59:30.448Z,35.40
2019-02-05T21:02:11.361Z,35.67
2019-02-05T21:04:53.529Z,28.53
2019-02-05T21:07:34.742Z,28.33
2019-02-05T21:10:15.077Z,31.67
2019-02-05T21:12:56.364Z,30.67
2019-02-05T21:18:23.107Z,32.23
2019-02-05T21:21:03.618Z,29.80
2019-02-05T21:23:44.593Z,32.17
2019-02-05T21:26:25.487Z,29.03
2019-02-05T21:29:05.940Z,27.33
2019-02-05T21:31:47.607Z,26.03
2019-02-05T21:34:28.348Z,26.70
2019-02-05T21:37:09.513Z,27.60
2019-02-05T21:40:01.757Z,28.77
2019-02-05T21:42:33.014Z,25.30
2019-02-05T21:45:13.766Z,24.10
2019-02-05T21:47:54.970Z,26.13
2019-02-05T21:50:35.245Z,24.30
2019-02-05T21:53:16.318Z,27.20
2019-02-05T21:55:57.614Z,27.97
2019-02-05T21:58:39.923Z,29.90
2019-02-05T22:01:21.418Z,25.77
2019-02-05T22:04:02.867Z,26.00
2019-02-05T22:06:43.355Z,23.67
2019-02-05T22:09:25.037Z,20.47
2019-02-05T22:12:05.706Z,20.50
2019-02-05T22:14:47.834Z,20.67
2019-02-05T22:17:29.087Z,18.97
2019-02-05T22:20:10.340Z,19.03
2019-02-05T22:22:56.052Z,19.47
2019-02-05T22:25:36.445Z,19.37
2019-02-05T22:28:20.662Z,19.80
2019-02-05T22:31:00.729Z,18.87
2019-02-05T22:33:41.344Z,19.87
2019-02-05T22:36:22.017Z,17.43
2019-02-05T22:39:05.133Z,18.60
2019-02-05T22:41:46.079Z,17.97
2019-02-05T22:44:26.681Z,19.37
2019-02-05T22:47:10.541Z,17.43
2019-02-05T22:49:51.695Z,19.10
2019-02-05T22:52:33.215Z,19.57
2019-02-05T22:55:14.603Z,19.47
2019-02-05T22:57:55.244Z,19.63
2019-02-05T23:00:37.534Z,16.50
2019-02-05T23:03:18.844Z,18.40
2019-02-05T23:05:59.867Z,18.07
2019-02-05T23:08:40.734Z,16.60
2019-02-05T23:11:24.049Z,17.33
2019-02-05T23:14:04.666Z,16.37
2019-02-05T23:19:29.534Z,14.80
2019-02-05T23:22:11.279Z,15.40
2019-02-05T23:24:52.608Z,13.63
2019-02-05T23:27:34.785Z,14.43
2019-02-05T23:30:15.608Z,15.30
2019-02-05T23:32:56.442Z,14.50
2019-02-05T23:35:37.213Z,14.67
2019-02-05T23:38:18.161Z,15.60
2019-02-05T23:40:58.542Z,17.77
2019-02-05T23:43:41.538Z,16.67
2019-02-05T23:46:24.822Z,18.67
2019-02-05T23:49:05.717Z,22.70
2019-02-05T23:51:47.545Z,21.40
2019-02-05T23:54:27.977Z,24.20
2019-02-05T23:57:11.009Z,21.90
2019-02-05T23:59:54.411Z,24.33
